Time;durP1;ratioP1;P1;durP2;ratioP2;P2;SDS_P1;SDS_P2;PMS_P1;PMS_P2;Temp;Humidity;BMP_temperature;BMP_pressure;BME280_temperature;BME280_humidity;BME280_pressure;Samples;Min_cycle;Max_cycle;Signal;HPM_P1;HPM_P2
2024/01/14 00:00:53;;;;;;;1.97;1.87;;;0.90;86.90;;;;;;5060884;28;20735;-86
2024/01/14 00:03:21;;;;;;;4.57;3.97;;;0.90;86.80;;;;;;5062595;28;20288;-85
2024/01/14 00:05:50;;;;;;;1.90;1.77;;;0.90;86.60;;;;;;5068529;28;20204;-86
2024/01/14 00:08:20;;;;;;;5.10;2.63;;;0.90;86.70;;;;;;5066400;28;20656;-86
2024/01/14 00:10:48;;;;;;;15.03;3.60;;;0.90;86.70;;;;;;5065497;28;20668;-85
2024/01/14 00:13:17;;;;;;;1.80;1.70;;;0.90;86.80;;;;;;5064157;28;20565;-84
2024/01/14 00:15:45;;;;;;;7.27;3.10;;;0.80;86.70;;;;;;5066504;28;20206;-83
2024/01/14 00:18:14;;;;;;;2.20;1.83;;;0.80;87.00;;;;;;5061216;28;20573;-82
2024/01/14 00:20:42;;;;;;;4.00;2.73;;;0.80;87.00;;;;;;5067330;28;20204;-82
2024/01/14 00:23:11;;;;;;;2.33;2.20;;;0.80;87.20;;;;;;5061404;28;20195;-84
2024/01/14 00:25:43;;;;;;;2.47;2.27;;;0.70;87.10;;;;;;5071400;28;20582;-84
2024/01/14 00:28:12;;;;;;;3.73;3.37;;;0.70;87.20;;;;;;5065007;28;20230;-84
2024/01/14 00:30:40;;;;;;;2.63;2.47;;;0.70;87.40;;;;;;5063007;28;20663;-84
2024/01/14 00:33:11;;;;;;;4.77;3.67;;;0.70;87.40;;;;;;5060571;28;20627;-84
2024/01/14 00:35:40;;;;;;;10.90;4.03;;;0.60;87.50;;;;;;5062055;28;20332;-80
2024/01/14 00:38:13;;;;;;;0.90;0.90;;;0.60;87.70;;;;;;5061751;28;20202;-79
2024/01/14 00:40:44;;;;;;;1.57;1.47;;;0.60;87.70;;;;;;5062693;28;20256;-79
2024/01/14 00:43:13;;;;;;;4.53;1.77;;;0.60;87.80;;;;;;5065683;28;20197;-80
2024/01/14 00:45:41;;;;;;;4.07;3.70;;;0.60;87.90;;;;;;5062541;28;20199;-81
2024/01/14 00:48:10;;;;;;;2.30;2.20;;;0.50;87.80;;;;;;5065609;28;20718;-85
2024/01/14 00:50:39;;;;;;;1.73;1.63;;;0.50;88.00;;;;;;5070135;28;20245;-84
2024/01/14 00:53:07;;;;;;;1.97;1.87;;;0.60;88.00;;;;;;5063714;28;20324;-84
2024/01/14 00:55:36;;;;;;;2.83;2.63;;;0.60;88.10;;;;;;5066287;28;20195;-85
2024/01/14 00:58:06;;;;;;;3.87;3.50;;;0.60;88.10;;;;;;5060611;28;20203;-84
2024/01/14 01:00:35;;;;;;;7.70;2.20;;;0.50;88.10;;;;;;5062046;28;20695;-84
2024/01/14 01:03:04;;;;;;;2.13;2.03;;;0.50;88.30;;;;;;5058453;28;20195;-84
2024/01/14 01:05:32;;;;;;;1.93;1.83;;;0.50;88.20;;;;;;5058246;28;20752;-85
2024/01/14 01:08:01;;;;;;;6.60;4.00;;;0.50;88.40;;;;;;5061755;28;20248;-85
2024/01/14 01:10:30;;;;;;;3.63;3.30;;;0.50;88.20;;;;;;5060218;28;20238;-85
2024/01/14 01:12:58;;;;;;;1.93;1.83;;;0.50;88.20;;;;;;5061060;28;20201;-85
2024/01/14 01:15:28;;;;;;;5.77;3.70;;;0.40;88.10;;;;;;5061793;28;20574;-86
2024/01/14 01:17:57;;;;;;;4.37;3.23;;;0.40;88.20;;;;;;5074267;28;20227;-87
2024/01/14 01:20:26;;;;;;;2.30;2.20;;;0.40;88.30;;;;;;5066649;28;20302;-87
2024/01/14 01:22:54;;;;;;;2.40;2.20;;;0.40;88.30;;;;;;5067258;28;20209;-87
2024/01/14 01:25:23;;;;;;;2.87;2.33;;;0.40;88.40;;;;;;5064201;28;20199;-87
2024/01/14 01:27:51;;;;;;;5.33;2.43;;;0.30;88.50;;;;;;5065983;28;20229;-86
2024/01/14 01:30:20;;;;;;;2.23;2.13;;;0.40;88.30;;;;;;5062180;28;20213;-86
2024/01/14 01:32:50;;;;;;;1.83;1.73;;;0.30;88.50;;;;;;5057615;28;20490;-85
2024/01/14 01:35:19;;;;;;;2.40;2.20;;;0.30;88.30;;;;;;5060237;28;22245;-84
2024/01/14 01:37:47;;;;;;;2.03;1.93;;;0.30;88.30;;;;;;5059921;28;20209;-85
2024/01/14 01:40:16;;;;;;;4.37;2.50;;;0.40;88.30;;;;;;5067079;28;20577;-84
2024/01/14 01:42:44;;;;;;;1.10;0.93;;;0.40;88.20;;;;;;5059875;28;20198;-84
2024/01/14 01:45:13;;;;;;;3.20;2.90;;;0.30;88.30;;;;;;5066917;28;20238;-84
2024/01/14 01:47:42;;;;;;;2.03;1.90;;;0.40;88.20;;;;;;5067979;28;20624;-84
2024/01/14 01:50:12;;;;;;;5.90;3.30;;;0.30;88.30;;;;;;5064770;28;20199;-84
2024/01/14 01:52:41;;;;;;;4.00;3.70;;;0.30;88.40;;;;;;5062245;28;20190;-83
2024/01/14 01:55:12;;;;;;;1.63;1.53;;;0.30;88.30;;;;;;5066770;28;20217;-84
2024/01/14 01:57:41;;;;;;;5.63;2.03;;;0.30;88.40;;;;;;5061661;28;20234;-85
2024/01/14 02:00:11;;;;;;;2.10;2.00;;;0.20;88.40;;;;;;5056537;28;20613;-81
2024/01/14 02:02:43;;;;;;;3.10;2.10;;;0.20;88.60;;;;;;5064057;28;20408;-81
2024/01/14 02:05:13;;;;;;;3.00;2.80;;;0.20;88.40;;;;;;5064599;28;20195;-82
2024/01/14 02:07:42;;;;;;;1.90;1.80;;;0.20;88.30;;;;;;5064455;28;20669;-81
2024/01/14 02:10:10;;;;;;;5.17;2.83;;;0.20;88.30;;;;;;5065795;28;20214;-82
2024/01/14 02:12:39;;;;;;;3.03;2.50;;;0.20;88.30;;;;;;5064556;28;20364;-81
2024/01/14 02:17:50;;;;;;;1.70;1.63;;;0.20;88.10;;;;;;5061385;28;20536;-85
2024/01/14 02:20:20;;;;;;;1.77;1.67;;;0.10;88.20;;;;;;5067762;28;20191;-86
2024/01/14 02:22:52;;;;;;;3.00;2.00;;;0.10;88.20;;;;;;5067924;28;20194;-86
2024/01/14 02:25:22;;;;;;;3.67;3.27;;;0.10;88.10;;;;;;5069611;28;20221;-86
2024/01/14 02:27:51;;;;;;;3.37;3.07;;;0.10;88.10;;;;;;5063343;28;20207;-86
2024/01/14 02:30:20;;;;;;;4.43;2.90;;;0.10;88.10;;;;;;5068893;28;20206;-86
2024/01/14 02:32:50;;;;;;;1.13;1.13;;;0.10;88.00;;;;;;5071203;28;20621;-87
2024/01/14 02:35:19;;;;;;;3.03;2.47;;;0.10;87.90;;;;;;5072522;28;21051;-86
2024/01/14 02:37:47;;;;;;;1.10;1.10;;;0.10;88.00;;;;;;5067205;28;20206;-87
2024/01/14 02:40:17;;;;;;;5.13;1.67;;;0.10;88.00;;;;;;5063336;28;20204;-88
2024/01/14 02:42:47;;;;;;;4.23;2.53;;;0.10;88.00;;;;;;5061955;28;20190;-86
2024/01/14 02:45:14;;;;;;;2.88;2.58;;;0.00;88.00;;;;;;5070459;28;20466;-86
2024/01/14 02:47:43;;;;;;;3.73;3.23;;;0.00;88.20;;;;;;5061907;28;20283;-84
2024/01/14 02:50:11;;;;;;;1.77;1.67;;;0.00;88.30;;;;;;5071321;28;20229;-84
2024/01/14 02:52:40;;;;;;;1.67;1.60;;;0.00;88.30;;;;;;5065394;28;20211;-85
2024/01/14 02:55:08;;;;;;;1.43;1.30;;;-0.10;88.30;;;;;;5067290;28;20194;-85
2024/01/14 02:57:37;;;;;;;4.23;1.83;;;-0.10;88.30;;;;;;5067715;28;20206;-85
2024/01/14 03:00:10;;;;;;;1.60;1.50;;;-0.10;88.40;;;;;;5065420;28;20206;-84
2024/01/14 03:02:39;;;;;;;3.60;2.13;;;-0.10;88.40;;;;;;5066681;28;20241;-85
2024/01/14 03:05:08;;;;;;;1.80;1.67;;;-0.10;89.40;;;;;;5067360;28;20468;-84
2024/01/14 03:07:36;;;;;;;3.60;2.30;;;-0.10;88.50;;;;;;5063993;28;20202;-84
2024/01/14 03:10:05;;;;;;;4.37;3.63;;;-0.10;88.50;;;;;;5069135;28;20272;-85
2024/01/14 03:12:34;;;;;;;3.37;3.07;;;-0.10;88.50;;;;;;5058542;28;20193;-83
2024/01/14 03:15:03;;;;;;;0.70;0.70;;;0.00;88.40;;;;;;5067953;28;20325;-83
2024/01/14 03:17:33;;;;;;;1.10;1.10;;;0.00;88.30;;;;;;5063949;28;20656;-82
2024/01/14 03:20:02;;;;;;;3.03;2.83;;;0.00;88.30;;;;;;5063186;28;21067;-82
2024/01/14 03:22:31;;;;;;;1.67;1.57;;;0.10;88.20;;;;;;5060627;28;20213;-82
2024/01/14 03:24:59;;;;;;;3.00;2.40;;;0.10;88.00;;;;;;5067495;28;20233;-85
2024/01/14 03:27:28;;;;;;;4.97;2.70;;;0.00;87.80;;;;;;5063437;28;20195;-86
2024/01/14 03:29:56;;;;;;;2.07;1.97;;;0.00;87.70;;;;;;5065885;28;20722;-85
2024/01/14 03:32:25;;;;;;;3.93;1.67;;;0.00;87.90;;;;;;5057665;28;20210;-85
2024/01/14 03:34:55;;;;;;;0.87;0.87;;;-0.10;87.80;;;;;;5069649;28;20201;-85
2024/01/14 03:37:23;;;;;;;2.27;2.00;;;0.00;87.90;;;;;;5069634;28;20214;-83
2024/01/14 03:39:52;;;;;;;1.70;1.60;;;-0.10;87.70;;;;;;5063679;28;20284;-83
2024/01/14 03:42:20;;;;;;;1.77;1.67;;;0.00;87.70;;;;;;5059718;28;20210;-81
2024/01/14 03:44:49;;;;;;;2.00;1.90;;;-0.10;87.70;;;;;;5063898;28;20232;-82
2024/01/14 03:47:18;;;;;;;3.50;2.93;;;0.00;87.60;;;;;;5064068;28;20218;-83
2024/01/14 03:49:47;;;;;;;0.90;0.90;;;0.00;87.60;;;;;;5063842;28;20590;-83
2024/01/14 03:52:17;;;;;;;2.23;2.13;;;0.00;87.60;;;;;;5060613;28;20205;-85
2024/01/14 03:54:46;;;;;;;2.43;2.23;;;-0.10;87.50;;;;;;5066355;28;20205;-84
2024/01/14 03:57:14;;;;;;;1.20;1.20;;;-0.10;87.60;;;;;;5067610;28;20205;-86
2024/01/14 03:59:43;;;;;;;2.30;2.10;;;-0.10;87.70;;;;;;5070370;28;20206;-84
2024/01/14 04:02:11;;;;;;;1.97;1.33;;;-0.20;87.60;;;;;;5070705;28;20217;-82
2024/01/14 04:04:40;;;;;;;1.70;1.50;;;-0.20;87.80;;;;;;5066656;28;20290;-82
2024/01/14 04:07:11;;;;;;;0.87;0.87;;;-0.20;87.70;;;;;;5067830;28;20210;-81
2024/01/14 04:09:41;;;;;;;2.73;2.30;;;-0.20;87.70;;;;;;5063762;28;20215;-84
2024/01/14 04:12:10;;;;;;;1.47;1.43;;;-0.20;87.90;;;;;;5071142;28;20198;-85
2024/01/14 04:14:38;;;;;;;1.87;1.77;;;-0.20;87.80;;;;;;5065882;28;20290;-85
2024/01/14 04:17:06;;;;;;;1.10;1.10;;;-0.10;87.70;;;;;;5065396;28;20190;-84
2024/01/14 04:19:36;;;;;;;2.10;1.90;;;-0.10;87.60;;;;;;5070385;28;20202;-84
2024/01/14 04:22:05;;;;;;;2.40;2.20;;;0.00;87.50;;;;;;5065924;28;20201;-85
2024/01/14 04:24:33;;;;;;;1.73;1.63;;;-0.10;87.50;;;;;;5067750;28;20209;-84
2024/01/14 04:27:04;;;;;;;3.87;1.43;;;-0.10;87.50;;;;;;5066643;28;20220;-85
2024/01/14 04:29:32;;;;;;;4.20;2.07;;;0.00;87.60;;;;;;5063625;28;20221;-85
2024/01/14 04:32:01;;;;;;;3.50;3.17;;;0.00;87.40;;;;;;5067793;28;20566;-85
2024/01/14 04:34:30;;;;;;;6.90;3.77;;;0.00;87.40;;;;;;5061544;28;20611;-81
2024/01/14 04:36:58;;;;;;;3.43;3.03;;;0.10;87.30;;;;;;5066451;28;20463;-82
2024/01/14 04:39:27;;;;;;;3.70;1.97;;;0.10;87.10;;;;;;5066504;28;20201;-82
2024/01/14 04:41:56;;;;;;;1.10;1.10;;;0.10;86.90;;;;;;5065512;28;20227;-82
2024/01/14 04:44:26;;;;;;;1.97;1.87;;;0.10;86.80;;;;;;5063704;28;20207;-82
2024/01/14 04:46:55;;;;;;;2.77;2.57;;;0.10;86.80;;;;;;5062204;28;20207;-81
2024/01/14 04:49:24;;;;;;;0.90;0.90;;;0.10;86.70;;;;;;5063572;28;22976;-81
2024/01/14 04:51:53;;;;;;;5.50;2.97;;;0.10;86.60;;;;;;5066602;28;20651;-81
2024/01/14 04:54:21;;;;;;;1.37;1.17;;;0.00;86.50;;;;;;5064779;28;20202;-81
2024/01/14 04:56:50;;;;;;;9.73;1.87;;;0.10;86.50;;;;;;5062479;28;20206;-82
2024/01/14 04:59:19;;;;;;;2.53;2.33;;;0.10;86.40;;;;;;5062040;28;20271;-82
2024/01/14 05:01:49;;;;;;;2.17;2.00;;;0.10;86.40;;;;;;5070078;28;20230;-85
2024/01/14 05:04:17;;;;;;;1.63;1.53;;;0.10;86.40;;;;;;5060947;28;20198;-84
2024/01/14 05:06:46;;;;;;;1.77;1.67;;;0.10;86.40;;;;;;5068317;28;20194;-85
2024/01/14 05:09:15;;;;;;;4.10;2.87;;;0.20;86.40;;;;;;5063243;28;20221;-87
2024/01/14 05:11:43;;;;;;;1.10;1.10;;;0.20;86.30;;;;;;5067761;28;20346;-87
2024/01/14 05:14:12;;;;;;;1.20;1.20;;;0.20;86.20;;;;;;5059727;28;20199;-86
2024/01/14 05:16:40;;;;;;;2.83;2.30;;;0.10;86.00;;;;;;5065065;28;20323;-86
2024/01/14 05:19:10;;;;;;;4.13;3.73;;;0.10;85.90;;;;;;5063244;28;20213;-87
2024/01/14 05:21:39;;;;;;;4.37;2.53;;;0.00;86.00;;;;;;5065134;28;20243;-84
2024/01/14 05:24:08;;;;;;;2.47;1.77;;;0.10;86.10;;;;;;5065267;28;20197;-83
2024/01/14 05:26:40;;;;;;;0.80;0.80;;;0.00;86.10;;;;;;5061668;28;20195;-81
2024/01/14 05:29:09;;;;;;;0.60;0.60;;;0.00;86.30;;;;;;5063460;28;20201;-82
2024/01/14 05:31:37;;;;;;;2.33;2.03;;;0.10;86.30;;;;;;5061688;28;20314;-82
2024/01/14 05:34:06;;;;;;;1.13;1.13;;;0.10;86.30;;;;;;5061316;28;20248;-81
2024/01/14 05:36:37;;;;;;;1.40;1.30;;;0.10;86.40;;;;;;5056004;28;20260;-82
2024/01/14 05:39:05;;;;;;;6.70;2.20;;;0.10;86.50;;;;;;5060135;28;20218;-81
2024/01/14 05:41:34;;;;;;;1.43;1.33;;;0.10;86.40;;;;;;5069023;28;20206;-80
2024/01/14 05:44:03;;;;;;;1.57;1.47;;;0.10;86.40;;;;;;5063304;28;20566;-81
2024/01/14 05:46:32;;;;;;;0.80;0.80;;;0.10;86.30;;;;;;5070507;28;20202;-81
2024/01/14 05:49:01;;;;;;;1.93;1.83;;;0.10;86.20;;;;;;5058519;28;20289;-80
2024/01/14 05:51:30;;;;;;;2.00;1.90;;;0.10;86.10;;;;;;5061812;28;20233;-80
2024/01/14 05:54:00;;;;;;;3.93;3.63;;;0.20;85.90;;;;;;5067847;28;20198;-79
2024/01/14 05:56:32;;;;;;;1.93;1.83;;;0.20;85.80;;;;;;5061182;28;20203;-81
2024/01/14 05:59:01;;;;;;;2.20;2.07;;;0.20;85.90;;;;;;5060352;28;20237;-83
2024/01/14 06:01:29;;;;;;;3.03;2.83;;;0.20;85.90;;;;;;5063867;28;20218;-81
2024/01/14 06:03:58;;;;;;;1.77;1.67;;;0.30;85.80;;;;;;5059325;28;20206;-80
2024/01/14 06:06:26;;;;;;;3.67;1.73;;;0.30;85.80;;;;;;5064252;28;20197;-82
2024/01/14 06:08:55;;;;;;;2.87;2.63;;;0.30;85.70;;;;;;5068234;28;20195;-82
2024/01/14 06:11:25;;;;;;;4.30;2.50;;;0.30;85.60;;;;;;5066911;28;20303;-80
2024/01/14 06:13:53;;;;;;;1.53;1.43;;;0.40;85.70;;;;;;5061643;28;20222;-80
2024/01/14 06:16:22;;;;;;;16.23;2.83;;;0.40;85.70;;;;;;5061877;28;20205;-81
2024/01/14 06:18:50;;;;;;;9.43;2.83;;;0.40;85.80;;;;;;5065102;28;20190;-82
2024/01/14 06:21:19;;;;;;;2.73;2.57;;;0.50;85.80;;;;;;5062717;28;20190;-83
2024/01/14 06:23:49;;;;;;;1.53;1.43;;;0.50;85.60;;;;;;5060813;28;20595;-83
2024/01/14 06:26:18;;;;;;;1.77;1.67;;;0.50;85.50;;;;;;5062411;28;20472;-81
2024/01/14 06:28:48;;;;;;;2.20;2.00;;;0.50;85.60;;;;;;5062099;28;20221;-83
2024/01/14 06:34:00;;;;;;;3.13;2.83;;;0.60;85.50;;;;;;5066889;28;20289;-84
2024/01/14 06:36:29;;;;;;;2.30;2.10;;;0.70;85.50;;;;;;5069192;28;20191;-84
2024/01/14 06:38:58;;;;;;;3.73;3.37;;;0.80;85.40;;;;;;5068807;28;20213;-84
2024/01/14 06:41:28;;;;;;;4.80;2.27;;;0.80;85.20;;;;;;5068554;28;20352;-83
2024/01/14 06:43:58;;;;;;;1.57;1.47;;;0.80;85.00;;;;;;5062816;28;20203;-85
2024/01/14 06:46:26;;;;;;;1.10;1.10;;;0.90;84.90;;;;;;5063620;28;20201;-84
2024/01/14 06:48:54;;;;;;;2.33;2.23;;;0.80;84.70;;;;;;5062476;28;20207;-82
2024/01/14 06:51:23;;;;;;;1.90;1.80;;;0.80;84.70;;;;;;5065903;28;20643;-85
2024/01/14 06:53:52;;;;;;;1.73;1.63;;;0.80;84.80;;;;;;5063659;28;20198;-84
2024/01/14 06:56:21;;;;;;;1.67;1.43;;;0.90;84.90;;;;;;5060895;28;20203;-84
2024/01/14 06:58:50;;;;;;;3.43;2.93;;;0.90;85.00;;;;;;5071115;28;20272;-86
2024/01/14 07:04:16;;;;;;;2.03;1.93;;;1.00;85.10;;;;;;5063709;28;20568;-84
2024/01/14 07:06:45;;;;;;;4.97;3.17;;;1.00;85.20;;;;;;5064069;28;20222;-83
2024/01/14 07:09:14;;;;;;;1.80;1.70;;;1.00;85.30;;;;;;5061545;28;20584;-84
2024/01/14 07:11:42;;;;;;;2.97;1.90;;;1.00;85.50;;;;;;5068152;28;20235;-78
2024/01/14 07:14:11;;;;;;;2.80;2.57;;;1.00;85.60;;;;;;5067063;28;20199;-79
2024/01/14 07:16:41;;;;;;;6.70;2.73;;;1.10;85.80;;;;;;5070735;28;20285;-80
2024/01/14 07:19:09;;;;;;;1.90;1.67;;;1.10;85.80;;;;;;5063373;28;20504;-82
2024/01/14 07:21:38;;;;;;;3.17;2.87;;;1.10;85.80;;;;;;5053398;28;20211;-80
2024/01/14 07:24:07;;;;;;;2.70;1.80;;;1.00;85.60;;;;;;5067460;28;20197;-80
2024/01/14 07:26:35;;;;;;;5.27;2.27;;;1.00;85.60;;;;;;5071814;28;20207;-80
2024/01/14 07:29:04;;;;;;;12.33;4.70;;;1.00;85.80;;;;;;5070687;28;20199;-79
2024/01/14 07:31:33;;;;;;;1.67;1.57;;;1.10;85.90;;;;;;5066595;28;20224;-80
2024/01/14 07:34:03;;;;;;;2.13;2.03;;;1.00;85.60;;;;;;5061826;28;20217;-80
2024/01/14 07:36:32;;;;;;;2.27;2.07;;;1.10;86.00;;;;;;5068321;28;20246;-81
2024/01/14 07:39:00;;;;;;;3.57;2.40;;;1.00;85.90;;;;;;5071952;28;20205;-79
2024/01/14 07:41:29;;;;;;;3.77;3.27;;;1.10;86.00;;;;;;5067384;28;20250;-79
2024/01/14 07:43:58;;;;;;;1.43;1.33;;;1.20;86.10;;;;;;5059973;28;20199;-80
2024/01/14 07:46:26;;;;;;;1.80;1.53;;;1.30;86.10;;;;;;5066093;28;20214;-78
2024/01/14 07:48:55;;;;;;;1.70;1.60;;;1.30;86.10;;;;;;5058996;28;20203;-79
2024/01/14 07:51:25;;;;;;;3.10;2.80;;;1.40;86.10;;;;;;5063647;28;20262;-84
2024/01/14 07:53:54;;;;;;;2.70;2.50;;;1.40;86.00;;;;;;5062924;28;20189;-80
2024/01/14 07:56:22;;;;;;;2.73;2.53;;;1.40;86.00;;;;;;5063482;28;20397;-80
2024/01/14 07:58:51;;;;;;;3.10;1.27;;;1.50;86.00;;;;;;5066795;28;20561;-81
2024/01/14 08:01:19;;;;;;;4.10;2.60;;;1.60;85.80;;;;;;5070615;28;20310;-81
2024/01/14 08:03:48;;;;;;;2.20;2.00;;;1.60;85.70;;;;;;5057766;28;20233;-81
2024/01/14 08:06:22;;;;;;;10.50;3.87;;;1.60;85.40;;;;;;5067137;28;20952;-81
2024/01/14 08:08:52;;;;;;;1.90;1.67;;;1.60;84.90;;;;;;5062784;28;20200;-80
2024/01/14 08:11:20;;;;;;;2.47;2.27;;;1.60;84.80;;;;;;5068311;28;20297;-80
2024/01/14 08:13:49;;;;;;;4.80;4.20;;;1.70;85.20;;;;;;5068717;28;20205;-81
2024/01/14 08:16:18;;;;;;;2.93;2.73;;;1.70;85.10;;;;;;5067379;28;20192;-82
2024/01/14 08:18:46;;;;;;;3.53;2.20;;;1.80;85.20;;;;;;5061406;28;20229;-80
2024/01/14 08:21:15;;;;;;;1.93;1.70;;;1.80;85.10;;;;;;5060334;28;20291;-81
2024/01/14 08:23:44;;;;;;;2.27;2.07;;;1.90;85.10;;;;;;5059680;28;20725;-79
2024/01/14 08:26:14;;;;;;;1.10;1.10;;;2.00;84.60;;;;;;5067007;28;20208;-85
2024/01/14 08:28:42;;;;;;;2.47;2.27;;;2.00;84.70;;;;;;5061755;28;20311;-81
2024/01/14 08:31:11;;;;;;;1.73;1.63;;;2.10;84.80;;;;;;5063253;28;20423;-80
2024/01/14 08:36:23;;;;;;;3.37;2.77;;;2.30;84.70;;;;;;5065696;28;20261;-84
2024/01/14 08:38:51;;;;;;;1.83;1.73;;;2.40;84.50;;;;;;5061246;28;20199;-80
2024/01/14 08:41:24;;;;;;;1.10;1.07;;;2.50;84.40;;;;;;5062905;28;20217;-79
2024/01/14 08:43:55;;;;;;;4.53;2.30;;;2.50;84.10;;;;;;5066166;28;20195;-81
2024/01/14 08:46:24;;;;;;;1.93;1.83;;;2.60;84.30;;;;;;5059867;28;20202;-80
2024/01/14 08:48:52;;;;;;;1.20;1.10;;;2.70;84.00;;;;;;5063473;28;20195;-80
2024/01/14 08:51:23;;;;;;;4.50;2.40;;;2.70;84.00;;;;;;5060995;28;20290;-81
2024/01/14 08:53:52;;;;;;;6.87;1.80;;;2.80;83.80;;;;;;5061222;28;20194;-79
2024/01/14 08:56:22;;;;;;;3.27;2.97;;;2.80;83.40;;;;;;5064456;28;20655;-79
2024/01/14 08:58:50;;;;;;;3.10;2.57;;;2.90;83.30;;;;;;5060852;28;20198;-80
2024/01/14 09:01:19;;;;;;;4.20;3.13;;;3.00;82.90;;;;;;5059198;28;20314;-80
2024/01/14 09:03:47;;;;;;;2.70;2.50;;;3.00;83.20;;;;;;5055173;28;20230;-78
2024/01/14 09:06:16;;;;;;;4.90;2.13;;;3.10;82.90;;;;;;5061323;28;20203;-79
2024/01/14 09:08:45;;;;;;;2.67;1.97;;;3.10;83.00;;;;;;5057362;28;20195;-79
2024/01/14 09:11:14;;;;;;;6.00;3.17;;;3.20;83.20;;;;;;5064708;28;20202;-78
2024/01/14 09:13:45;;;;;;;2.77;2.57;;;3.30;82.80;;;;;;5057156;28;20229;-80
2024/01/14 09:16:14;;;;;;;3.53;3.23;;;3.40;82.30;;;;;;5066351;28;20218;-79
2024/01/14 09:18:42;;;;;;;3.40;2.77;;;3.40;82.00;;;;;;5059078;28;20194;-81
2024/01/14 09:21:11;;;;;;;2.43;1.83;;;3.50;81.80;;;;;;5064707;28;20282;-82
2024/01/14 09:23:40;;;;;;;2.10;1.90;;;3.60;82.10;;;;;;5055612;28;20198;-81
2024/01/14 09:26:08;;;;;;;2.20;1.97;;;3.70;81.30;;;;;;5063304;28;20202;-79
2024/01/14 09:28:37;;;;;;;2.93;2.13;;;3.70;81.50;;;;;;5064989;28;20687;-81
2024/01/14 09:31:07;;;;;;;2.63;2.43;;;3.80;81.30;;;;;;5059749;28;20198;-81
2024/01/14 09:33:35;;;;;;;5.63;2.30;;;3.90;81.10;;;;;;5065056;28;20221;-79
2024/01/14 09:36:09;;;;;;;3.40;2.20;;;3.90;80.50;;;;;;5071673;28;20306;-82
2024/01/14 09:38:38;;;;;;;1.00;1.00;;;4.00;80.80;;;;;;5072640;28;20195;-82
2024/01/14 09:41:21;;;;;;;1.33;1.30;;;4.00;79.90;;;;;;5075377;28;20195;-82
2024/01/14 09:43:51;;;;;;;1.93;1.83;;;4.10;80.00;;;;;;5067693;28;20633;-81
2024/01/14 09:46:22;;;;;;;1.60;1.50;;;4.10;78.70;;;;;;5075917;28;20206;-81
2024/01/14 09:48:52;;;;;;;2.20;1.53;;;4.20;78.60;;;;;;5065736;28;20190;-82
2024/01/14 09:54:05;;;;;;;2.23;2.00;;;4.30;78.70;;;;;;5069648;28;20575;-81
2024/01/14 09:56:34;;;;;;;2.03;1.33;;;4.40;78.20;;;;;;5074035;28;20201;-84
2024/01/14 09:59:07;;;;;;;1.80;1.60;;;4.50;77.50;;;;;;5070443;28;20533;-82
2024/01/14 10:01:38;;;;;;;2.53;2.43;;;4.50;77.60;;;;;;5071235;28;20230;-84
2024/01/14 10:04:08;;;;;;;2.10;1.90;;;4.50;78.00;;;;;;5071027;28;20207;-83
2024/01/14 10:06:37;;;;;;;1.67;1.57;;;4.60;78.00;;;;;;5073955;28;20195;-84
2024/01/14 10:09:06;;;;;;;2.83;2.00;;;4.60;78.30;;;;;;5066250;28;20209;-84
2024/01/14 10:11:34;;;;;;;2.03;1.93;;;4.70;77.50;;;;;;5070309;28;20637;-81
2024/01/14 10:14:04;;;;;;;1.77;1.67;;;4.70;77.10;;;;;;5070096;28;20684;-79
2024/01/14 10:16:36;;;;;;;2.87;2.30;;;4.70;77.00;;;;;;5072487;28;20211;-80
2024/01/14 10:19:24;;;;;;;2.37;2.17;;;4.70;77.10;;;;;;5063058;28;20271;-82
2024/01/14 10:21:54;;;;;;;2.17;1.97;;;4.80;77.10;;;;;;5071328;28;20648;-83
2024/01/14 10:24:43;;;;;;;1.97;1.87;;;4.80;77.20;;;;;;5067840;28;20569;-82
2024/01/14 10:27:11;;;;;;;6.47;2.83;;;5.00;76.30;;;;;;5056358;28;20209;-82
2024/01/14 10:30:00;;;;;;;2.50;2.30;;;5.00;76.00;;;;;;5061358;28;20844;-80
2024/01/14 10:32:32;;;;;;;1.93;1.77;;;5.20;76.10;;;;;;5066069;28;20274;-82
2024/01/14 10:35:24;;;;;;;1.93;1.73;;;5.30;75.30;;;;;;5061414;28;20201;-81
2024/01/14 10:37:54;;;;;;;1.57;1.47;;;5.30;74.80;;;;;;5062028;28;20244;-82
2024/01/14 10:40:36;;;;;;;2.43;2.23;;;5.40;74.60;;;;;;5066668;28;20225;-82
2024/01/14 10:43:08;;;;;;;3.83;1.80;;;5.50;74.60;;;;;;5062704;28;20194;-81
2024/01/14 10:45:37;;;;;;;3.27;2.67;;;5.60;74.50;;;;;;5069459;28;20225;-80
2024/01/14 10:48:09;;;;;;;3.27;2.97;;;5.60;74.30;;;;;;5064152;28;20198;-81
2024/01/14 10:50:42;;;;;;;2.30;2.13;;;5.60;73.80;;;;;;5071111;28;20201;-83
2024/01/14 10:56:31;;;;;;;2.30;2.20;;;5.70;73.30;;;;;;5062286;28;20209;-82
2024/01/14 10:59:01;;;;;;;2.30;2.10;;;5.90;73.80;;;;;;5061379;28;20604;-82
2024/01/14 11:01:32;;;;;;;2.50;2.30;;;6.00;73.70;;;;;;5063640;28;20218;-81
2024/01/14 11:04:01;;;;;;;1.13;1.07;;;6.00;73.00;;;;;;5068800;28;20648;-81
2024/01/14 11:06:35;;;;;;;2.10;1.53;;;6.10;72.70;;;;;;5069723;28;20202;-82
2024/01/14 11:09:04;;;;;;;2.60;1.80;;;6.20;72.20;;;;;;5067373;28;20198;-82
2024/01/14 11:11:41;;;;;;;3.60;2.00;;;6.20;71.90;;;;;;5063133;28;20202;-82
2024/01/14 11:14:14;;;;;;;1.33;1.23;;;6.30;71.60;;;;;;5057307;28;20225;-81
2024/01/14 11:16:47;;;;;;;3.10;1.27;;;6.30;71.00;;;;;;5058815;28;20199;-82
2024/01/14 11:19:19;;;;;;;1.07;1.07;;;6.40;70.70;;;;;;5068461;28;20217;-80
2024/01/14 11:22:21;;;;;;;0.60;0.60;;;6.50;69.90;;;;;;5058888;28;20688;-82
2024/01/14 11:25:04;;;;;;;1.20;1.13;;;6.50;70.20;;;;;;5067555;28;20198;-83
2024/01/14 11:27:35;;;;;;;0.83;0.83;;;6.50;70.20;;;;;;5067031;28;20556;-82
2024/01/14 11:30:05;;;;;;;2.70;1.97;;;6.60;70.30;;;;;;5063717;28;20236;-83
2024/01/14 11:32:34;;;;;;;2.20;2.10;;;6.60;69.70;;;;;;5061414;28;20461;-83
2024/01/14 11:35:03;;;;;;;12.80;2.77;;;6.70;69.60;;;;;;5067815;28;20218;-83
2024/01/14 11:37:44;;;;;;;1.83;1.73;;;6.70;69.10;;;;;;5063379;28;20228;-83
2024/01/14 11:40:23;;;;;;;2.93;2.27;;;6.60;68.40;;;;;;5058378;28;20197;-83
2024/01/14 11:42:57;;;;;;;1.37;1.27;;;6.70;68.50;;;;;;5059687;28;20681;-84
2024/01/14 11:45:34;;;;;;;2.33;1.47;;;6.60;68.80;;;;;;5072169;28;20595;-83
2024/01/14 11:48:08;;;;;;;3.17;1.60;;;6.60;68.30;;;;;;5064975;28;20205;-80
2024/01/14 11:50:38;;;;;;;1.93;1.77;;;6.60;68.40;;;;;;5063514;28;20474;-81
2024/01/14 11:53:09;;;;;;;3.33;2.67;;;6.70;68.60;;;;;;5058574;28;20646;-83
2024/01/14 11:55:37;;;;;;;6.23;2.67;;;6.70;68.60;;;;;;5065632;28;20255;-83
2024/01/14 11:58:15;;;;;;;1.57;1.47;;;6.70;69.00;;;;;;5067066;28;20198;-81
2024/01/14 12:00:46;;;;;;;0.80;0.80;;;6.70;69.00;;;;;;5065649;28;20191;-81
2024/01/14 12:03:18;;;;;;;1.90;1.33;;;6.70;68.80;;;;;;5062969;28;20194;-81
2024/01/14 12:05:47;;;;;;;3.77;2.73;;;6.60;69.70;;;;;;5072164;28;20594;-82
2024/01/14 12:08:20;;;;;;;3.83;2.90;;;6.70;70.00;;;;;;5064676;28;20237;-81
2024/01/14 12:10:48;;;;;;;1.73;1.63;;;6.70;69.90;;;;;;5071712;28;20203;-81
2024/01/14 12:13:17;;;;;;;4.20;2.47;;;6.80;69.70;;;;;;5065350;28;20198;-80
2024/01/14 12:15:46;;;;;;;3.67;2.73;;;6.80;69.00;;;;;;5064962;28;20232;-81
2024/01/14 12:18:40;;;;;;;5.03;2.73;;;6.90;68.80;;;;;;5063538;28;20286;-81
2024/01/14 12:27:01;;;;;;;0.70;0.70;;;7.00;67.50;;;;;;5055701;28;20199;-81
2024/01/14 12:29:31;;;;;;;1.40;1.33;;;7.10;67.60;;;;;;5065928;28;20962;-82
2024/01/14 12:32:05;;;;;;;2.13;1.97;;;7.20;67.70;;;;;;5062727;28;20195;-82
2024/01/14 12:34:39;;;;;;;6.57;1.40;;;7.20;67.20;;;;;;5065613;28;20594;-80
2024/01/14 12:37:11;;;;;;;3.53;1.93;;;7.30;67.80;;;;;;5065442;28;20194;-81
2024/01/14 12:39:43;;;;;;;2.93;1.60;;;7.50;68.00;;;;;;5068837;28;20190;-81
2024/01/14 12:42:13;;;;;;;3.17;1.87;;;7.50;67.40;;;;;;5068858;28;20206;-82
2024/01/14 12:44:43;;;;;;;6.50;3.47;;;7.50;67.20;;;;;;5068836;28;20194;-82
2024/01/14 12:47:12;;;;;;;2.70;1.50;;;7.50;67.30;;;;;;5069451;28;20582;-81
2024/01/14 12:49:44;;;;;;;1.67;1.10;;;7.50;66.80;;;;;;5062436;28;20820;-82
2024/01/14 12:52:15;;;;;;;2.70;1.70;;;7.50;66.80;;;;;;5072051;28;20220;-81
2024/01/14 12:54:50;;;;;;;3.10;2.80;;;7.60;66.80;;;;;;5068296;28;20359;-83
2024/01/14 13:02:43;;;;;;;1.70;1.60;;;7.80;66.60;;;;;;5058332;28;20760;-82
2024/01/14 13:05:32;;;;;;;3.30;2.30;;;7.90;66.20;;;;;;5071715;28;20436;-84
2024/01/14 13:08:01;;;;;;;2.13;1.93;;;8.00;66.90;;;;;;5066741;28;20649;-82
2024/01/14 13:10:31;;;;;;;0.73;0.73;;;8.10;67.40;;;;;;5062919;28;20707;-82
2024/01/14 13:12:59;;;;;;;1.10;1.07;;;8.20;67.20;;;;;;5059226;28;20241;-83
2024/01/14 13:15:28;;;;;;;5.10;2.27;;;8.40;67.00;;;;;;5061463;28;20225;-82
2024/01/14 13:18:00;;;;;;;2.63;1.70;;;8.50;66.70;;;;;;5066387;28;20194;-80
2024/01/14 13:20:28;;;;;;;4.10;2.17;;;8.80;66.00;;;;;;5066333;28;20198;-82
2024/01/14 13:22:57;;;;;;;2.07;1.77;;;9.30;67.90;;;;;;5066685;28;20209;-82
2024/01/14 13:25:26;;;;;;;1.97;1.63;;;9.70;67.00;;;;;;5067767;28;20198;-82
2024/01/14 13:27:59;;;;;;;2.63;1.77;;;10.10;65.40;;;;;;5071246;28;20563;-82
2024/01/14 13:30:29;;;;;;;2.00;1.53;;;10.60;63.90;;;;;;5067642;28;20201;-83
2024/01/14 13:32:58;;;;;;;3.77;1.80;;;11.40;64.50;;;;;;5066565;28;20221;-80
2024/01/14 13:35:27;;;;;;;3.80;2.07;;;12.20;63.30;;;;;;5060911;28;20580;-82
2024/01/14 13:37:55;;;;;;;0.90;0.80;;;13.00;58.80;;;;;;5063052;28;20188;-82